createdAt,value
2023-01-01T00:00:01.910Z,52.30
2023-01-01T00:02:37.490Z,52.90
2023-01-01T00:05:06.492Z,52.35
2023-01-01T00:07:33.500Z,51.37
2023-01-01T00:10:18.883Z,51.46
2023-01-01T00:12:45.786Z,51.66
2023-01-01T00:15:12.648Z,51.21
2023-01-01T00:17:39.502Z,51.45
2023-01-01T00:20:07.952Z,50.58
2023-01-01T00:22:53.881Z,50.99
2023-01-01T00:25:21.755Z,50.55
2023-01-01T00:27:48.609Z,50.07
2023-01-01T00:30:15.498Z,49.72
2023-01-01T00:32:42.375Z,50.45
2023-01-01T00:35:21.936Z,49.30
2023-01-01T00:37:48.810Z,49.91
2023-01-01T00:40:15.724Z,49.95
2023-01-01T00:42:42.582Z,49.71
2023-01-01T00:45:13.133Z,49.85
2023-01-01T00:47:42.508Z,49.71
2023-01-01T00:50:09.457Z,49.55
2023-01-01T00:52:36.319Z,49.77
2023-01-01T00:55:03.323Z,49.45
2023-01-01T00:57:30.257Z,49.77
2023-01-01T00:59:57.126Z,49.42
2023-01-01T01:02:24.352Z,49.53
2023-01-01T01:04:51.434Z,48.95
2023-01-01T01:07:18.316Z,48.80
2023-01-01T01:09:45.550Z,49.05
2023-01-01T01:12:17.658Z,48.96
2023-01-01T01:14:46.698Z,49.44
2023-01-01T01:17:13.572Z,49.01
2023-01-01T01:19:40.467Z,48.62
2023-01-01T01:22:07.356Z,49.44
2023-01-01T01:24:34.237Z,49.00
2023-01-01T01:27:01.153Z,48.55
2023-01-01T01:29:28.080Z,48.80
2023-01-01T01:31:54.986Z,48.92
2023-01-01T01:34:27.510Z,49.05
2023-01-01T01:36:55.467Z,48.92
2023-01-01T01:39:22.625Z,48.98
2023-01-01T01:41:49.695Z,49.27
2023-01-01T01:44:53.925Z,49.27
2023-01-01T01:47:47.797Z,48.98
2023-01-01T01:50:32.294Z,49.46
2023-01-01T01:53:09.488Z,49.02
2023-01-01T01:55:41.077Z,48.66
2023-01-01T01:58:11.769Z,48.40
2023-01-01T02:00:38.795Z,48.75
2023-01-01T02:03:23.541Z,48.30
2023-01-01T02:05:52.066Z,48.87
2023-01-01T02:08:21.177Z,48.74
2023-01-01T02:10:48.242Z,48.91
2023-01-01T02:13:15.531Z,48.06
2023-01-01T02:15:54.683Z,48.26
2023-01-01T02:18:28.489Z,48.78
2023-01-01T02:21:05.150Z,48.25
2023-01-01T02:23:53.623Z,48.49
2023-01-01T02:26:38.711Z,47.96
2023-01-01T02:29:26.162Z,48.33
2023-01-01T02:32:02.852Z,48.50
2023-01-01T02:34:41.367Z,48.31
2023-01-01T02:37:11.702Z,48.56
2023-01-01T02:39:50.270Z,48.27
2023-01-01T02:42:17.663Z,48.16
2023-01-01T02:44:49.093Z,48.15
2023-01-01T02:47:20.818Z,48.02
2023-01-01T02:50:01.635Z,47.71
2023-01-01T02:53:08.995Z,47.60
2023-01-01T02:55:54.832Z,47.51
2023-01-01T02:59:06.588Z,47.83
2023-01-01T03:01:50.694Z,47.84
2023-01-01T03:04:47.436Z,47.37
2023-01-01T03:07:50.906Z,47.58
2023-01-01T03:10:49.451Z,47.56
2023-01-01T03:13:29.065Z,47.63
2023-01-01T03:16:04.140Z,46.99
2023-01-01T03:19:10.984Z,47.50
2023-01-01T03:21:45.922Z,47.59
2023-01-01T03:24:46.779Z,47.26
2023-01-01T03:27:31.332Z,46.81
2023-01-01T03:30:08.415Z,47.06
2023-01-01T03:33:01.502Z,46.67
2023-01-01T03:35:37.155Z,46.50
2023-01-01T03:38:13.788Z,46.98
2023-01-01T03:40:42.397Z,46.72
2023-01-01T03:43:19.329Z,46.87
2023-01-01T03:45:48.924Z,46.47
2023-01-01T03:48:17.161Z,46.80
2023-01-01T03:51:10.204Z,46.85
2023-01-01T03:53:41.640Z,46.45
2023-01-01T03:56:19.990Z,46.27
2023-01-01T03:59:07.169Z,46.57
2023-01-01T04:01:40.867Z,46.39
2023-01-01T04:04:08.395Z,46.44
2023-01-01T04:06:35.296Z,46.50
2023-01-01T04:09:04.735Z,46.50
2023-01-01T04:11:52.033Z,46.93
2023-01-01T04:14:42.118Z,46.81
2023-01-01T04:17:12.244Z,46.54
2023-01-01T04:19:39.273Z,46.80
2023-01-01T04:22:06.576Z,47.15
2023-01-01T04:24:33.484Z,46.78
2023-01-01T04:27:00.599Z,47.03
2023-01-01T04:29:27.542Z,46.54
2023-01-01T04:31:54.551Z,46.91
2023-01-01T04:34:21.443Z,47.12
2023-01-01T04:36:48.314Z,47.14
2023-01-01T04:39:15.215Z,46.81
2023-01-01T04:41:42.078Z,46.61
2023-01-01T04:44:08.971Z,46.37
2023-01-01T04:46:35.883Z,46.51
2023-01-01T04:49:02.750Z,46.96
2023-01-01T04:51:29.653Z,46.60
2023-01-01T04:53:56.528Z,46.67
2023-01-01T04:56:24.018Z,46.39
2023-01-01T04:58:50.978Z,46.93
2023-01-01T05:01:25.615Z,46.56
2023-01-01T05:03:53.368Z,46.95
2023-01-01T05:06:20.530Z,46.85
2023-01-01T05:08:50.341Z,47.01
2023-01-01T05:11:21.221Z,46.71
2023-01-01T05:13:51.061Z,46.87
2023-01-01T05:16:25.170Z,46.53
2023-01-01T05:18:52.466Z,46.41
2023-01-01T05:21:26.161Z,46.79
2023-01-01T05:23:59.336Z,46.76
2023-01-01T05:26:30.380Z,46.90
2023-01-01T05:28:57.873Z,46.56
2023-01-01T05:31:28.977Z,47.18
2023-01-01T05:36:27.934Z,46.43
2023-01-01T05:38:55.194Z,46.99
2023-01-01T05:41:23.214Z,46.80
2023-01-01T05:43:51.350Z,46.68
2023-01-01T05:46:21.706Z,46.38
2023-01-01T05:48:49.230Z,46.78
2023-01-01T05:51:26.451Z,46.49
2023-01-01T05:53:58.284Z,46.31
2023-01-01T05:56:26.274Z,46.30
2023-01-01T05:58:53.399Z,46.19
2023-01-01T06:01:30.845Z,46.08
2023-01-01T06:03:59.991Z,46.26
2023-01-01T06:06:33.233Z,46.22
2023-01-01T06:09:04.187Z,46.65
2023-01-01T06:11:32.382Z,46.49
2023-01-01T06:14:00.773Z,46.02
2023-01-01T06:16:29.836Z,46.11
2023-01-01T06:18:56.791Z,46.06
2023-01-01T06:21:29.075Z,46.02
2023-01-01T06:23:57.931Z,45.94
2023-01-01T06:26:34.231Z,46.17
2023-01-01T06:29:02.787Z,46.28
2023-01-01T06:31:35.627Z,45.77
2023-01-01T06:34:05.411Z,46.28
2023-01-01T06:36:32.340Z,46.29
2023-01-01T06:39:00.054Z,46.42
2023-01-01T06:41:28.402Z,46.44
2023-01-01T06:44:00.850Z,45.86
2023-01-01T06:46:34.278Z,46.57
2023-01-01T06:49:07.946Z,45.81
2023-01-01T06:51:43.038Z,46.16
2023-01-01T06:54:11.132Z,45.91
2023-01-01T06:56:39.080Z,46.09
2023-01-01T06:59:06.174Z,46.41
2023-01-01T07:01:36.009Z,46.15
2023-01-01T07:04:08.300Z,46.37
2023-01-01T07:06:36.420Z,45.96
2023-01-01T07:09:04.365Z,46.09
2023-01-01T07:11:31.750Z,46.08
2023-01-01T07:13:58.714Z,45.90
2023-01-01T07:16:26.029Z,46.43
2023-01-01T07:18:53.167Z,46.20
2023-01-01T07:21:52.896Z,46.48
2023-01-01T07:24:20.357Z,45.64
2023-01-01T07:26:48.892Z,45.86
2023-01-01T07:29:16.183Z,45.34
2023-01-01T07:31:44.459Z,45.33
2023-01-01T07:34:22.894Z,45.17
2023-01-01T07:36:50.770Z,45.69
2023-01-01T07:39:17.666Z,45.40
2023-01-01T07:41:45.228Z,45.01
2023-01-01T07:44:13.558Z,45.20
2023-01-01T07:46:40.577Z,45.41
2023-01-01T07:49:07.497Z,45.49
2023-01-01T07:51:34.417Z,44.90
2023-01-01T07:54:06.617Z,45.00
2023-01-01T07:56:35.670Z,44.45
2023-01-01T07:59:02.576Z,45.48
2023-01-01T08:01:29.630Z,44.62
2023-01-01T08:03:56.556Z,44.82
2023-01-01T08:06:23.453Z,44.44
2023-01-01T08:08:50.384Z,44.22
2023-01-01T08:11:17.450Z,44.50
2023-01-01T08:13:44.344Z,44.66
2023-01-01T08:16:11.259Z,44.36
2023-01-01T08:18:38.412Z,44.28
2023-01-01T08:21:05.881Z,44.04
2023-01-01T08:23:32.764Z,44.32
2023-01-01T08:26:02.255Z,44.04
2023-01-01T08:28:30.730Z,44.44
2023-01-01T08:30:57.953Z,43.81
2023-01-01T08:33:26.111Z,43.42
2023-01-01T08:35:54.654Z,43.76
2023-01-01T08:38:22.091Z,43.56
2023-01-01T08:40:48.991Z,43.26
2023-01-01T08:43:15.938Z,43.63
2023-01-01T08:45:42.888Z,43.59
2023-01-01T08:48:10.541Z,43.59
2023-01-01T08:50:37.635Z,43.85
2023-01-01T08:53:04.665Z,43.62
2023-01-01T08:55:31.554Z,44.05
2023-01-01T08:57:58.479Z,43.56
2023-01-01T09:00:25.422Z,43.59
2023-01-01T09:02:52.541Z,43.70
2023-01-01T09:05:20.142Z,44.27
2023-01-01T09:07:47.088Z,43.86
2023-01-01T09:10:13.979Z,43.31
2023-01-01T09:12:40.877Z,43.83
2023-01-01T09:15:14.861Z,43.76
2023-01-01T09:17:41.748Z,43.49
2023-01-01T09:20:09.068Z,43.77
2023-01-01T09:22:35.967Z,43.77
2023-01-01T09:25:02.845Z,43.61
2023-01-01T09:27:29.748Z,43.46
2023-01-01T09:29:56.652Z,43.64
2023-01-01T09:32:24.000Z,44.02
2023-01-01T09:34:52.679Z,43.20
2023-01-01T09:37:19.758Z,43.34
2023-01-01T09:39:46.785Z,43.26
2023-01-01T09:42:37.879Z,43.43
2023-01-01T09:45:25.575Z,43.59
2023-01-01T09:48:00.510Z,43.29
2023-01-01T09:50:38.777Z,43.75
2023-01-01T09:53:32.688Z,43.53
2023-01-01T09:56:05.194Z,44.00
2023-01-01T09:58:36.434Z,44.08
2023-01-01T10:01:20.295Z,44.27
2023-01-01T10:04:22.270Z,44.26
2023-01-01T10:07:13.843Z,43.41
2023-01-01T10:10:14.259Z,43.90
2023-01-01T10:12:54.889Z,44.05
2023-01-01T10:15:31.103Z,43.95
2023-01-01T10:18:00.825Z,44.40
2023-01-01T10:21:08.818Z,43.83
2023-01-01T10:23:44.216Z,43.68
2023-01-01T10:26:19.624Z,43.59
2023-01-01T10:29:03.569Z,43.41
2023-01-01T10:31:37.150Z,44.02
2023-01-01T10:34:17.495Z,44.07
2023-01-01T10:36:44.948Z,43.52
2023-01-01T10:39:16.384Z,43.70
2023-01-01T10:41:47.371Z,43.59
2023-01-01T10:44:18.443Z,43.63
2023-01-01T10:46:50.899Z,43.78
2023-01-01T10:49:17.759Z,43.17
2023-01-01T10:51:50.364Z,43.65
2023-01-01T10:54:37.761Z,43.92
2023-01-01T10:57:20.869Z,44.04
2023-01-01T10:59:53.770Z,43.49
2023-01-01T11:02:24.853Z,44.26
2023-01-01T11:04:53.902Z,43.52
2023-01-01T11:07:34.028Z,43.99
2023-01-01T11:10:05.221Z,43.52
2023-01-01T11:15:39.278Z,43.87
2023-01-01T11:18:12.696Z,43.58
2023-01-01T11:20:40.383Z,43.84
2023-01-01T11:23:35.054Z,43.56
2023-01-01T11:26:05.424Z,43.35
2023-01-01T11:28:35.122Z,43.56
2023-01-01T11:31:15.958Z,43.24
2023-01-01T11:33:55.551Z,43.13
2023-01-01T11:36:30.079Z,43.31
2023-01-01T11:39:20.041Z,43.25
2023-01-01T11:41:52.790Z,43.11
2023-01-01T11:44:49.043Z,42.81
2023-01-01T11:47:35.978Z,43.06
2023-01-01T11:50:19.759Z,42.99
2023-01-01T11:52:49.722Z,43.16
2023-01-01T11:55:45.829Z,43.15
2023-01-01T11:58:31.749Z,43.13
2023-01-01T12:01:10.160Z,43.18
2023-01-01T12:03:58.806Z,42.81
2023-01-01T12:06:53.395Z,43.17
2023-01-01T12:09:55.088Z,43.34
2023-01-01T12:12:51.141Z,43.64
2023-01-01T12:15:28.820Z,43.25
2023-01-01T12:18:16.422Z,43.11
2023-01-01T12:21:08.538Z,43.72
2023-01-01T12:23:36.470Z,43.14
2023-01-01T12:26:17.369Z,43.62
2023-01-01T12:29:12.398Z,43.42
2023-01-01T12:31:57.702Z,42.89
2023-01-01T12:34:56.855Z,43.02
2023-01-01T12:37:55.021Z,43.48
2023-01-01T12:40:51.564Z,43.77
2023-01-01T12:43:47.515Z,43.58
2023-01-01T12:46:54.277Z,44.00
2023-01-01T12:49:51.050Z,43.79
2023-01-01T12:52:49.545Z,43.39
2023-01-01T12:55:59.268Z,43.81
2023-01-01T12:58:50.577Z,43.91
2023-01-01T13:01:22.760Z,44.28
2023-01-01T13:03:55.177Z,44.30
2023-01-01T13:06:38.440Z,44.21
2023-01-01T13:09:15.878Z,44.30
2023-01-01T13:11:46.440Z,44.11
2023-01-01T13:14:13.379Z,44.47
2023-01-01T13:16:42.399Z,44.08
2023-01-01T13:19:34.318Z,44.28
2023-01-01T13:22:26.888Z,44.64
2023-01-01T13:25:13.854Z,44.71
2023-01-01T13:28:03.358Z,44.72
2023-01-01T13:30:36.982Z,44.61
2023-01-01T13:33:33.262Z,44.64
2023-01-01T13:36:12.035Z,44.14
2023-01-01T13:38:58.335Z,43.94
2023-01-01T13:41:43.409Z,44.67
2023-01-01T13:44:11.581Z,44.56
2023-01-01T13:46:44.359Z,44.04
2023-01-01T13:49:55.852Z,44.68
2023-01-01T13:52:54.782Z,44.90
2023-01-01T13:55:56.680Z,44.94
2023-01-01T13:58:43.411Z,44.32
2023-01-01T14:01:13.266Z,44.60
2023-01-01T14:03:48.673Z,44.54
2023-01-01T14:06:36.583Z,44.76
2023-01-01T14:09:17.126Z,44.82
2023-01-01T14:11:44.037Z,45.11
2023-01-01T14:14:24.585Z,45.32
2023-01-01T14:16:53.852Z,44.99
2023-01-01T14:19:21.219Z,45.36
2023-01-01T14:21:48.316Z,45.36
2023-01-01T14:24:18.203Z,45.17
2023-01-01T14:26:45.845Z,45.58
2023-01-01T14:29:27.251Z,45.53
2023-01-01T14:31:54.698Z,45.71
2023-01-01T14:34:32.689Z,45.62
2023-01-01T14:37:07.251Z,45.56
2023-01-01T14:39:36.771Z,45.66
2023-01-01T14:42:16.924Z,45.72
2023-01-01T14:44:49.739Z,45.89
2023-01-01T14:47:29.469Z,46.37
2023-01-01T14:50:04.647Z,46.47
2023-01-01T14:52:34.075Z,46.48
2023-01-01T14:55:02.238Z,46.33
2023-01-01T14:57:35.832Z,46.88
2023-01-01T15:00:20.507Z,46.48
2023-01-01T15:02:47.511Z,46.48
2023-01-01T15:05:23.280Z,46.66
2023-01-01T15:08:01.707Z,47.03
2023-01-01T15:10:31.333Z,46.75
2023-01-01T15:12:58.980Z,46.77
2023-01-01T15:15:42.357Z,46.86
2023-01-01T15:18:37.757Z,47.26
2023-01-01T15:21:42.720Z,47.29
2023-01-01T15:24:11.799Z,47.32
2023-01-01T15:26:52.799Z,47.52
2023-01-01T15:29:29.785Z,47.60
2023-01-01T15:32:13.586Z,47.48
2023-01-01T15:35:05.448Z,47.89
2023-01-01T15:37:46.355Z,47.49
2023-01-01T15:40:13.129Z,47.63
2023-01-01T15:43:08.175Z,47.80
2023-01-01T15:45:40.295Z,47.89
2023-01-01T15:48:31.033Z,48.16
2023-01-01T15:51:14.369Z,48.15
2023-01-01T15:53:54.891Z,48.22
2023-01-01T15:56:27.351Z,48.28
2023-01-01T15:59:08.661Z,48.26
2023-01-01T16:01:39.857Z,48.30
2023-01-01T16:04:28.276Z,48.28
2023-01-01T16:06:58.244Z,48.60
2023-01-01T16:09:25.674Z,48.56
2023-01-01T16:11:55.662Z,48.57
2023-01-01T16:14:23.062Z,48.57
2023-01-01T16:16:57.117Z,48.58
2023-01-01T16:19:24.730Z,48.64
2023-01-01T16:21:51.627Z,48.70
2023-01-01T16:24:20.062Z,48.66
2023-01-01T16:26:47.838Z,48.80
2023-01-01T16:29:15.081Z,48.74
2023-01-01T16:31:43.196Z,48.94
2023-01-01T16:34:16.294Z,49.09
2023-01-01T16:36:44.632Z,49.19
2023-01-01T16:39:11.974Z,49.14
2023-01-01T16:41:43.593Z,49.23
2023-01-01T16:44:16.226Z,49.32
2023-01-01T16:46:43.422Z,49.40
2023-01-01T16:49:10.346Z,49.43
2023-01-01T16:51:42.151Z,49.63
2023-01-01T16:54:10.394Z,49.67
2023-01-01T16:56:37.730Z,49.39
2023-01-01T16:59:04.641Z,49.69
2023-01-01T17:01:31.736Z,49.92
2023-01-01T17:03:59.676Z,49.93
2023-01-01T17:06:26.624Z,49.97
2023-01-01T17:08:53.662Z,50.08
2023-01-01T17:11:22.469Z,50.11
2023-01-01T17:13:49.372Z,50.25
2023-01-01T17:16:23.509Z,50.22
2023-01-01T17:21:42.225Z,50.32
2023-01-01T17:24:09.174Z,50.69
2023-01-01T17:26:36.111Z,50.81
2023-01-01T17:29:03.377Z,50.76
2023-01-01T17:31:30.651Z,50.80
2023-01-01T17:33:57.680Z,50.96
2023-01-01T17:36:27.073Z,51.16
2023-01-01T17:38:54.713Z,51.16
2023-01-01T17:41:22.619Z,51.72
2023-01-01T17:43:51.558Z,52.21
2023-01-01T17:46:24.508Z,52.26
2023-01-01T17:48:52.426Z,52.51
2023-01-01T17:51:20.126Z,52.78
2023-01-01T17:53:47.386Z,52.90
2023-01-01T17:56:17.574Z,52.88
2023-01-01T17:58:46.235Z,53.31
2023-01-01T18:01:13.121Z,53.33
2023-01-01T18:03:41.427Z,53.98
2023-01-01T18:06:08.963Z,54.24
2023-01-01T18:08:35.851Z,54.33
2023-01-01T18:11:02.752Z,54.86
2023-01-01T18:13:29.827Z,54.91
2023-01-01T18:16:01.632Z,54.61
2023-01-01T18:18:30.837Z,54.92
2023-01-01T18:21:14.219Z,55.39
2023-01-01T18:23:41.797Z,55.48
2023-01-01T18:26:10.861Z,55.75
2023-01-01T18:28:38.879Z,55.74
2023-01-01T18:31:09.960Z,55.85
2023-01-01T18:33:37.817Z,56.04
2023-01-01T18:36:08.385Z,56.01
2023-01-01T18:38:36.021Z,56.19
2023-01-01T18:41:41.109Z,56.14
2023-01-01T18:44:30.678Z,56.21
2023-01-01T18:47:13.472Z,56.06
2023-01-01T18:49:46.390Z,56.12
2023-01-01T18:52:27.756Z,56.30
2023-01-01T18:55:26.883Z,56.37
2023-01-01T18:58:08.580Z,56.19
2023-01-01T19:00:37.160Z,56.17
2023-01-01T19:03:15.149Z,55.92
2023-01-01T19:05:42.112Z,55.82
2023-01-01T19:08:08.870Z,55.85
2023-01-01T19:10:49.470Z,55.94
2023-01-01T19:13:33.032Z,56.03
2023-01-01T19:16:24.889Z,55.99
2023-01-01T19:18:53.344Z,56.06
2023-01-01T19:21:23.759Z,56.17
2023-01-01T19:23:55.496Z,55.85
2023-01-01T19:26:40.165Z,55.99
2023-01-01T19:29:20.818Z,55.85
2023-01-01T19:31:50.621Z,55.87
2023-01-01T19:34:18.087Z,55.64
2023-01-01T19:36:46.238Z,55.72
2023-01-01T19:39:13.739Z,55.84
2023-01-01T19:41:41.220Z,55.73
2023-01-01T19:44:10.426Z,55.68
2023-01-01T19:46:39.032Z,55.86
2023-01-01T19:49:06.041Z,55.80
2023-01-01T19:51:32.985Z,56.09
2023-01-01T19:53:59.917Z,56.17
2023-01-01T19:56:27.124Z,56.35
2023-01-01T19:58:54.011Z,56.18
2023-01-01T20:01:21.174Z,56.25
2023-01-01T20:03:57.179Z,56.14
2023-01-01T20:06:25.715Z,56.35
2023-01-01T20:08:53.085Z,56.27
2023-01-01T20:11:20.996Z,56.29
2023-01-01T20:13:48.338Z,56.33
2023-01-01T20:16:15.349Z,56.17
2023-01-01T20:18:42.277Z,56.30
2023-01-01T20:21:28.149Z,56.31
2023-01-01T20:23:56.201Z,56.33
2023-01-01T20:26:25.395Z,56.49
2023-01-01T20:29:11.111Z,56.16
2023-01-01T20:31:38.101Z,56.44
2023-01-01T20:34:05.061Z,56.43
2023-01-01T20:36:50.887Z,56.54
2023-01-01T20:39:17.765Z,56.55
2023-01-01T20:41:44.662Z,56.55
2023-01-01T20:44:11.568Z,56.58
2023-01-01T20:46:38.586Z,56.65
2023-01-01T20:49:05.927Z,56.53
2023-01-01T20:51:33.212Z,56.64
2023-01-01T20:54:00.179Z,56.80
2023-01-01T20:56:27.919Z,56.40
2023-01-01T20:59:00.061Z,56.50
2023-01-01T21:01:30.539Z,56.49
2023-01-01T21:03:57.528Z,56.49
2023-01-01T21:06:24.968Z,56.43
2023-01-01T21:08:52.652Z,56.54
2023-01-01T21:11:19.619Z,56.66
2023-01-01T21:13:47.823Z,56.41
2023-01-01T21:16:29.003Z,56.49
2023-01-01T21:18:56.925Z,56.36
2023-01-01T21:21:47.682Z,56.62
2023-01-01T21:24:23.567Z,56.64
2023-01-01T21:26:59.863Z,56.58
2023-01-01T21:29:32.300Z,56.56
2023-01-01T21:32:23.450Z,56.55
2023-01-01T21:34:52.474Z,56.52
2023-01-01T21:37:52.163Z,56.89
2023-01-01T21:40:22.080Z,56.76
2023-01-01T21:42:49.622Z,56.92
2023-01-01T21:45:31.478Z,57.11
2023-01-01T21:48:32.752Z,57.17
2023-01-01T21:51:01.135Z,57.44
2023-01-01T21:53:38.931Z,57.53
2023-01-01T21:56:27.605Z,57.98
2023-01-01T21:59:15.025Z,58.12
2023-01-01T22:01:45.078Z,58.08
2023-01-01T22:04:26.317Z,58.22
2023-01-01T22:07:47.817Z,58.32
2023-01-01T22:10:19.384Z,58.51
2023-01-01T22:12:46.927Z,58.20
2023-01-01T22:15:41.282Z,58.32
2023-01-01T22:18:17.212Z,58.30
2023-01-01T22:20:45.985Z,58.13
2023-01-01T22:23:38.665Z,58.18
2023-01-01T22:26:17.985Z,58.29
2023-01-01T22:28:47.538Z,58.31
2023-01-01T22:31:25.467Z,58.33
2023-01-01T22:33:55.293Z,58.28
2023-01-01T22:36:28.593Z,58.24
2023-01-01T22:39:01.589Z,58.34
2023-01-01T22:41:28.931Z,58.26
2023-01-01T22:44:01.702Z,58.42
2023-01-01T22:46:38.650Z,58.44
2023-01-01T22:49:22.898Z,58.63
2023-01-01T22:51:54.792Z,58.52
2023-01-01T22:54:21.711Z,58.68
2023-01-01T22:56:50.051Z,58.61
2023-01-01T22:59:17.029Z,58.81
2023-01-01T23:01:44.076Z,58.76
2023-01-01T23:04:11.015Z,58.73
2023-01-01T23:06:38.470Z,58.74
2023-01-01T23:09:05.975Z,58.63
2023-01-01T23:11:32.894Z,58.76
2023-01-01T23:14:18.085Z,58.71
2023-01-01T23:16:45.016Z,58.85
2023-01-01T23:19:12.505Z,58.95
2023-01-01T23:21:42.285Z,59.20
2023-01-01T23:24:15.594Z,59.21
2023-01-01T23:26:43.229Z,59.35
2023-01-01T23:29:11.696Z,59.35
2023-01-01T23:31:40.092Z,59.54
2023-01-01T23:34:07.917Z,59.52
2023-01-01T23:36:35.035Z,59.61
2023-01-01T23:39:01.956Z,59.44
2023-01-01T23:41:28.893Z,59.78
2023-01-01T23:43:55.753Z,59.81
2023-01-01T23:46:22.861Z,59.69
2023-01-01T23:48:49.939Z,59.82
2023-01-01T23:51:19.243Z,59.89
2023-01-01T23:53:46.476Z,59.79
2023-01-01T23:56:13.455Z,59.75
2023-01-01T23:58:40.360Z,59.94
